createdAt,value
2023-04-18T00:00:51.450Z,46.35
2023-04-18T00:01:51.450Z,47.06
2023-04-18T00:02:51.562Z,46.05
2023-04-18T00:03:51.655Z,43.97
2023-04-18T00:04:51.508Z,43.83
2023-04-18T00:05:51.395Z,42.97
2023-04-18T00:06:51.389Z,41.38
2023-04-18T00:07:51.448Z,42.28
2023-04-18T00:08:51.370Z,42.97
2023-04-18T00:09:51.371Z,42.98
2023-04-18T00:10:51.355Z,41.17
2023-04-18T00:11:51.361Z,41.50
2023-04-18T00:12:51.332Z,42.55
2023-04-18T00:13:51.314Z,41.51
2023-04-18T00:14:51.332Z,41.35
2023-04-18T00:15:51.305Z,41.99
2023-04-18T00:16:51.342Z,42.22
2023-04-18T00:17:51.344Z,42.39
2023-04-18T00:18:51.274Z,43.17
2023-04-18T00:19:51.269Z,41.73
2023-04-18T00:20:51.243Z,41.09
2023-04-18T00:21:51.237Z,40.71
2023-04-18T00:22:51.227Z,41.87
2023-04-18T00:23:51.217Z,42.25
2023-04-18T00:24:51.213Z,43.26
2023-04-18T00:25:51.209Z,43.10
2023-04-18T00:26:51.185Z,43.56
2023-04-18T00:27:51.175Z,43.68
2023-04-18T00:28:51.161Z,42.64
2023-04-18T00:29:51.165Z,43.48
2023-04-18T00:30:51.183Z,44.18
2023-04-18T00:31:51.125Z,43.72
2023-04-18T00:32:52.159Z,43.81
2023-04-18T00:33:51.118Z,42.74
2023-04-18T00:34:51.113Z,42.44
2023-04-18T00:35:51.089Z,43.49
2023-04-18T00:36:51.080Z,43.13
2023-04-18T00:37:51.075Z,42.80
2023-04-18T00:38:51.061Z,42.10
2023-04-18T00:39:51.108Z,41.99
2023-04-18T00:40:51.048Z,42.52
2023-04-18T00:41:51.035Z,43.66
2023-04-18T00:42:51.032Z,44.10
2023-04-18T00:43:51.017Z,42.34
2023-04-18T00:44:51.022Z,41.08
2023-04-18T00:45:51.040Z,41.02
2023-04-18T00:46:50.983Z,41.87
2023-04-18T00:47:51.001Z,42.47
2023-04-18T00:48:50.981Z,42.74
2023-04-18T00:49:50.978Z,42.19
2023-04-18T00:50:50.937Z,41.85
2023-04-18T00:51:50.934Z,42.80
2023-04-18T00:52:50.929Z,43.11
2023-04-18T00:53:50.918Z,42.50
2023-04-18T00:54:50.934Z,43.18
2023-04-18T00:55:50.910Z,44.00
2023-04-18T00:56:50.888Z,44.52
2023-04-18T00:57:50.885Z,43.18
2023-04-18T00:58:50.873Z,43.05
2023-04-18T00:59:50.859Z,42.89
2023-04-18T01:00:50.855Z,42.34
2023-04-18T01:01:50.886Z,42.58
2023-04-18T01:02:51.042Z,42.37
2023-04-18T01:03:50.850Z,41.32
2023-04-18T01:04:50.819Z,40.91
2023-04-18T01:05:50.798Z,41.44
2023-04-18T01:06:50.793Z,42.17
2023-04-18T01:07:50.780Z,42.21
2023-04-18T01:08:50.765Z,40.82
2023-04-18T01:09:50.772Z,40.78
2023-04-18T01:10:50.748Z,40.93
2023-04-18T01:11:50.734Z,41.65
2023-04-18T01:12:50.724Z,41.50
2023-04-18T01:13:50.722Z,41.79
2023-04-18T01:14:50.720Z,41.45
2023-04-18T01:15:50.836Z,41.36
2023-04-18T01:16:50.683Z,40.96
2023-04-18T01:17:50.714Z,42.49
2023-04-18T01:18:50.668Z,45.91
2023-04-18T01:19:50.669Z,43.41
2023-04-18T01:20:50.660Z,41.00
2023-04-18T01:21:50.631Z,40.42
2023-04-18T01:22:50.630Z,40.45
2023-04-18T01:23:50.629Z,45.17
2023-04-18T01:24:50.613Z,41.02
2023-04-18T01:25:50.604Z,40.24
2023-04-18T01:26:50.588Z,42.13
2023-04-18T01:27:50.574Z,41.93
2023-04-18T01:28:50.565Z,44.43
2023-04-18T01:29:50.572Z,43.46
2023-04-18T01:30:50.547Z,42.78
2023-04-18T01:31:50.578Z,45.75
2023-04-18T01:32:50.548Z,44.57
2023-04-18T01:33:50.521Z,42.30
2023-04-18T01:34:50.531Z,42.26
2023-04-18T01:35:50.501Z,42.64
2023-04-18T01:36:50.486Z,42.51
2023-04-18T01:37:50.474Z,42.00
2023-04-18T01:38:50.471Z,42.67
2023-04-18T01:39:50.454Z,41.64
2023-04-18T01:40:50.463Z,42.10
2023-04-18T01:41:50.440Z,41.36
2023-04-18T01:42:50.430Z,41.73
2023-04-18T01:43:50.415Z,40.98
2023-04-18T01:44:50.416Z,42.38
2023-04-18T01:45:50.417Z,43.45
2023-04-18T01:46:50.424Z,41.95
2023-04-18T01:47:50.436Z,41.91
2023-04-18T01:48:50.381Z,41.14
2023-04-18T01:49:50.364Z,41.21
2023-04-18T01:50:50.364Z,41.31
2023-04-18T01:51:50.344Z,41.78
2023-04-18T01:52:50.328Z,41.31
2023-04-18T01:53:50.337Z,41.77
2023-04-18T01:54:50.317Z,41.76
2023-04-18T01:55:50.321Z,41.75
2023-04-18T01:56:50.297Z,41.59
2023-04-18T01:57:50.286Z,41.95
2023-04-18T01:58:50.273Z,41.36
2023-04-18T01:59:50.263Z,41.17
2023-04-18T02:00:50.282Z,41.70
2023-04-18T02:01:50.285Z,41.79
2023-04-18T02:02:50.408Z,41.90
2023-04-18T02:03:50.491Z,42.55
2023-04-18T02:04:50.220Z,46.93
2023-04-18T02:05:50.216Z,47.93
2023-04-18T02:06:50.207Z,42.60
2023-04-18T02:07:50.216Z,41.72
2023-04-18T02:08:50.174Z,42.87
2023-04-18T02:09:50.163Z,43.30
2023-04-18T02:10:50.171Z,43.19
2023-04-18T02:11:50.144Z,42.55
2023-04-18T02:12:50.132Z,42.24
2023-04-18T02:13:50.126Z,41.68
2023-04-18T02:14:50.114Z,40.89
2023-04-18T02:15:50.121Z,41.41
2023-04-18T02:16:50.231Z,42.83
2023-04-18T02:17:50.109Z,43.15
2023-04-18T02:18:50.073Z,42.67
2023-04-18T02:19:50.063Z,42.49
2023-04-18T02:20:50.067Z,42.87
2023-04-18T02:21:50.052Z,42.64
2023-04-18T02:22:50.035Z,44.29
2023-04-18T02:23:50.029Z,44.88
2023-04-18T02:24:50.013Z,43.98
2023-04-18T02:25:50.023Z,44.70
2023-04-18T02:26:49.992Z,44.55
2023-04-18T02:27:49.985Z,45.35
2023-04-18T02:28:49.979Z,45.11
2023-04-18T02:29:49.957Z,43.65
2023-04-18T02:30:49.966Z,45.79
2023-04-18T02:31:49.987Z,45.92
2023-04-18T02:32:49.973Z,45.13
2023-04-18T02:33:49.929Z,44.18
2023-04-18T02:34:49.915Z,46.26
2023-04-18T02:35:49.918Z,46.03
2023-04-18T02:36:49.907Z,44.66
2023-04-18T02:37:49.894Z,45.29
2023-04-18T02:38:49.897Z,44.58
2023-04-18T02:39:49.863Z,45.05
2023-04-18T02:40:49.919Z,44.64
2023-04-18T02:41:49.840Z,43.96
2023-04-18T02:42:49.850Z,44.48
2023-04-18T02:43:49.827Z,46.69
2023-04-18T02:44:49.811Z,46.92
2023-04-18T02:45:49.821Z,46.80
2023-04-18T02:46:49.795Z,44.93
2023-04-18T02:47:55.154Z,48.22
2023-04-18T02:48:51.778Z,44.84
2023-04-18T02:49:49.773Z,45.23
2023-04-18T02:50:49.772Z,44.87
2023-04-18T02:51:49.742Z,43.96
2023-04-18T02:52:49.731Z,43.85
2023-04-18T02:53:49.720Z,44.67
2023-04-18T02:54:49.710Z,49.81
2023-04-18T02:55:49.713Z,44.91
2023-04-18T02:56:49.692Z,44.38
2023-04-18T02:57:49.703Z,45.50
2023-04-18T02:58:49.672Z,45.91
2023-04-18T02:59:49.660Z,44.58
2023-04-18T03:00:49.666Z,44.52
2023-04-18T03:01:49.642Z,45.20
2023-04-18T03:02:49.705Z,47.31
2023-04-18T03:03:49.630Z,46.04
2023-04-18T03:04:49.655Z,46.41
2023-04-18T03:05:49.613Z,47.72
2023-04-18T03:06:49.593Z,45.22
2023-04-18T03:07:49.591Z,46.69
2023-04-18T03:08:49.570Z,44.88
2023-04-18T03:09:49.566Z,45.12
2023-04-18T03:10:49.565Z,45.02
2023-04-18T03:11:49.545Z,48.40
2023-04-18T03:12:49.540Z,48.86
2023-04-18T03:13:49.531Z,52.26
2023-04-18T03:14:49.516Z,44.82
2023-04-18T03:15:49.591Z,46.74
2023-04-18T03:16:49.499Z,46.56
2023-04-18T03:17:49.539Z,44.58
2023-04-18T03:18:49.478Z,48.88
2023-04-18T03:19:49.465Z,49.87
2023-04-18T03:20:50.461Z,48.41
2023-04-18T03:21:49.444Z,46.11
2023-04-18T03:22:49.442Z,44.99
2023-04-18T03:23:49.429Z,49.06
2023-04-18T03:24:49.415Z,44.26
2023-04-18T03:25:49.422Z,47.35
2023-04-18T03:26:49.417Z,43.98
2023-04-18T03:27:49.392Z,48.51
2023-04-18T03:28:49.384Z,47.86
2023-04-18T03:29:49.372Z,44.18
2023-04-18T03:30:49.369Z,45.15
2023-04-18T03:31:49.371Z,46.96
2023-04-18T03:32:49.405Z,48.84
2023-04-18T03:33:49.329Z,45.54
2023-04-18T03:34:49.315Z,48.02
2023-04-18T03:35:49.317Z,52.72
2023-04-18T03:36:49.300Z,47.45
2023-04-18T03:37:49.292Z,51.85
2023-04-18T03:38:49.275Z,52.96
2023-04-18T03:39:49.267Z,52.47
2023-04-18T03:40:49.260Z,53.18
2023-04-18T03:41:49.249Z,55.13
2023-04-18T03:42:49.241Z,50.58
2023-04-18T03:43:49.230Z,47.78
2023-04-18T03:44:49.206Z,51.02
2023-04-18T03:45:50.256Z,48.53
2023-04-18T03:46:49.204Z,46.96
2023-04-18T03:47:49.269Z,52.83
2023-04-18T03:48:49.176Z,50.67
2023-04-18T03:49:49.172Z,48.50
2023-04-18T03:50:49.174Z,51.87
2023-04-18T03:51:49.168Z,52.72
2023-04-18T03:52:49.149Z,52.91
2023-04-18T03:53:49.138Z,55.20
2023-04-18T03:54:49.121Z,54.57
2023-04-18T03:55:49.131Z,50.06
2023-04-18T03:56:49.105Z,54.63
2023-04-18T03:57:49.118Z,55.77
2023-04-18T03:58:49.091Z,55.15
2023-04-18T03:59:49.078Z,54.60
2023-04-18T04:00:49.066Z,53.71
2023-04-18T04:01:49.159Z,54.25
2023-04-18T04:02:49.177Z,53.16
2023-04-18T04:03:49.144Z,53.15
2023-04-18T04:04:49.058Z,49.44
2023-04-18T04:05:49.026Z,52.93
2023-04-18T04:06:49.023Z,54.69
2023-04-18T04:07:49.001Z,52.27
2023-04-18T04:08:48.986Z,50.05
2023-04-18T04:09:48.978Z,50.32
2023-04-18T04:10:48.974Z,49.10
2023-04-18T04:11:48.958Z,48.59
2023-04-18T04:12:48.957Z,49.04
2023-04-18T04:13:48.940Z,50.77
2023-04-18T04:14:48.938Z,53.76
2023-04-18T04:15:48.931Z,53.66
2023-04-18T04:16:48.973Z,53.97
2023-04-18T04:17:48.954Z,49.57
2023-04-18T04:18:48.896Z,56.72
2023-04-18T04:19:48.885Z,51.83
2023-04-18T04:20:48.891Z,51.33
2023-04-18T04:21:48.875Z,50.49
2023-04-18T04:22:48.859Z,51.48
2023-04-18T04:23:48.848Z,48.39
2023-04-18T04:24:48.834Z,54.06
2023-04-18T04:25:48.843Z,47.49
2023-04-18T04:26:48.829Z,47.04
2023-04-18T04:27:48.808Z,47.75
2023-04-18T04:28:48.784Z,47.43
2023-04-18T04:29:49.798Z,54.33
2023-04-18T04:30:48.784Z,52.32
2023-04-18T04:31:48.828Z,53.94
2023-04-18T04:32:48.841Z,47.21
2023-04-18T04:33:48.766Z,51.91
2023-04-18T04:34:48.729Z,53.62
2023-04-18T04:35:48.736Z,54.88
2023-04-18T04:36:48.708Z,52.19
2023-04-18T04:37:48.700Z,47.99
2023-04-18T04:38:48.693Z,52.07
2023-04-18T04:39:48.716Z,51.65
2023-04-18T04:40:48.673Z,54.86
2023-04-18T04:41:48.659Z,52.85
2023-04-18T04:42:48.647Z,52.57
2023-04-18T04:43:48.639Z,52.57
2023-04-18T04:44:48.635Z,54.67
2023-04-18T04:45:48.637Z,50.20
2023-04-18T04:46:48.607Z,49.65
2023-04-18T04:47:48.674Z,50.56
2023-04-18T04:48:48.584Z,51.67
2023-04-18T04:49:48.582Z,53.90
2023-04-18T04:50:48.580Z,47.68
2023-04-18T04:51:48.565Z,49.70
2023-04-18T04:52:48.549Z,51.27
2023-04-18T04:53:48.565Z,48.36
2023-04-18T04:54:48.528Z,53.88
2023-04-18T04:55:48.523Z,53.35
2023-04-18T04:56:48.514Z,50.27
2023-04-18T04:57:48.504Z,47.88
2023-04-18T04:58:48.488Z,49.28
2023-04-18T04:59:48.482Z,49.45
2023-04-18T05:00:48.478Z,49.95
2023-04-18T05:01:48.527Z,51.43
2023-04-18T05:02:48.595Z,48.02
2023-04-18T05:03:48.561Z,51.91
2023-04-18T05:04:48.429Z,49.91
2023-04-18T05:05:48.441Z,53.57
2023-04-18T05:06:48.415Z,46.76
2023-04-18T05:07:48.404Z,50.66
2023-04-18T05:08:48.386Z,52.13
2023-04-18T05:09:48.382Z,53.84
2023-04-18T05:10:48.387Z,52.54
2023-04-18T05:11:48.357Z,53.16
2023-04-18T05:12:48.351Z,49.63
2023-04-18T05:13:48.344Z,49.63
2023-04-18T05:14:48.332Z,51.58
2023-04-18T05:15:48.324Z,52.85
2023-04-18T05:16:48.349Z,53.73
2023-04-18T05:17:48.350Z,53.03
2023-04-18T05:18:48.308Z,51.11
2023-04-18T05:19:48.287Z,50.09
2023-04-18T05:20:48.274Z,50.51
2023-04-18T05:21:48.320Z,49.11
2023-04-18T05:22:48.259Z,51.45
2023-04-18T05:23:48.266Z,52.05
2023-04-18T05:24:48.233Z,58.04
2023-04-18T05:25:48.215Z,48.76
2023-04-18T05:26:49.232Z,51.89
2023-04-18T05:27:48.203Z,46.95
2023-04-18T05:28:48.202Z,52.25
2023-04-18T05:29:48.187Z,51.41
2023-04-18T05:30:48.209Z,54.53
2023-04-18T05:31:48.174Z,51.95
2023-04-18T05:32:48.185Z,50.15
2023-04-18T05:33:48.147Z,50.47
2023-04-18T05:34:48.136Z,51.78
2023-04-18T05:35:48.128Z,52.85
2023-04-18T05:36:48.125Z,50.38
2023-04-18T05:37:48.106Z,51.05
2023-04-18T05:38:48.100Z,55.09
2023-04-18T05:39:48.092Z,52.62
2023-04-18T05:40:48.084Z,53.47
2023-04-18T05:41:48.083Z,51.72
2023-04-18T05:42:48.072Z,53.13
2023-04-18T05:43:58.081Z,52.37
2023-04-18T05:44:50.041Z,48.83
2023-04-18T05:45:48.064Z,51.20
2023-04-18T05:46:48.167Z,55.84
2023-04-18T05:47:48.061Z,50.74
2023-04-18T05:48:48.022Z,60.30
2023-04-18T05:49:47.999Z,55.43
2023-04-18T05:50:47.989Z,51.53
2023-04-18T05:51:47.985Z,52.40
2023-04-18T05:52:47.981Z,54.08
2023-04-18T05:53:47.952Z,48.81
2023-04-18T05:54:47.945Z,48.61
2023-04-18T05:55:47.940Z,53.21
2023-04-18T05:56:47.939Z,52.28
2023-04-18T05:57:47.915Z,52.16
2023-04-18T05:58:47.949Z,50.13
2023-04-18T05:59:47.914Z,56.22
2023-04-18T06:00:47.893Z,55.75
2023-04-18T06:01:47.889Z,50.87
2023-04-18T06:02:47.983Z,52.64
2023-04-18T06:03:48.115Z,53.88
2023-04-18T06:04:47.921Z,50.22
2023-04-18T06:05:48.048Z,52.15
2023-04-18T06:06:47.832Z,52.15
2023-04-18T06:07:47.823Z,55.31
2023-04-18T06:08:47.812Z,50.42
2023-04-18T06:09:47.817Z,52.96
2023-04-18T06:10:47.781Z,48.98
2023-04-18T06:11:47.787Z,50.43
2023-04-18T06:12:47.763Z,49.80
2023-04-18T06:13:47.787Z,50.51
2023-04-18T06:14:47.745Z,49.47
2023-04-18T06:15:47.769Z,49.75
2023-04-18T06:16:47.736Z,50.78
2023-04-18T06:17:47.785Z,52.25
2023-04-18T06:18:47.745Z,51.79
2023-04-18T06:19:47.697Z,52.87
2023-04-18T06:20:47.695Z,53.20
2023-04-18T06:21:47.682Z,51.37
2023-04-18T06:22:47.661Z,45.93
2023-04-18T06:23:47.671Z,56.36
2023-04-18T06:24:47.647Z,51.78
2023-04-18T06:25:47.632Z,47.75
2023-04-18T06:26:47.659Z,49.51
2023-04-18T06:27:47.609Z,52.14
2023-04-18T06:28:47.606Z,51.07
2023-04-18T06:29:47.599Z,49.36
2023-04-18T06:30:47.595Z,48.68
2023-04-18T06:31:47.608Z,46.49
2023-04-18T06:32:47.609Z,49.09
2023-04-18T06:33:47.546Z,51.54
2023-04-18T06:34:47.540Z,50.29
2023-04-18T06:35:47.538Z,46.10
2023-04-18T06:36:47.529Z,49.63
2023-04-18T06:37:47.516Z,49.54
2023-04-18T06:38:47.499Z,48.65
2023-04-18T06:39:47.487Z,51.37
2023-04-18T06:40:47.481Z,50.16
2023-04-18T06:41:47.486Z,55.61
2023-04-18T06:42:47.490Z,54.10
2023-04-18T06:44:02.019Z,50.20
2023-04-18T06:44:49.441Z,49.56
2023-04-18T06:45:47.512Z,50.94
2023-04-18T06:46:47.444Z,49.68
2023-04-18T06:47:47.435Z,51.04
2023-04-18T06:48:48.218Z,49.91
2023-04-18T06:49:47.399Z,51.22
2023-04-18T06:50:47.380Z,48.86
2023-04-18T06:51:47.377Z,49.68
2023-04-18T06:52:47.359Z,48.06
2023-04-18T06:53:47.339Z,50.82
2023-04-18T06:54:47.341Z,53.50
2023-04-18T06:55:47.323Z,49.73
2023-04-18T06:56:47.324Z,53.10
2023-04-18T06:57:47.300Z,50.50
2023-04-18T06:58:47.293Z,50.96
2023-04-18T06:59:47.289Z,47.05
2023-04-18T07:00:47.314Z,51.33
2023-04-18T07:01:47.277Z,52.75
2023-04-18T07:02:47.357Z,53.20
2023-04-18T07:03:47.457Z,52.53
2023-04-18T07:04:47.345Z,46.08
2023-04-18T07:05:47.218Z,49.73
2023-04-18T07:06:47.222Z,53.49
2023-04-18T07:07:47.201Z,50.48
2023-04-18T07:08:47.184Z,49.32
2023-04-18T07:09:47.189Z,50.90
2023-04-18T07:10:47.176Z,48.42
2023-04-18T07:11:47.207Z,51.87
2023-04-18T07:12:47.158Z,50.04
2023-04-18T07:13:47.145Z,47.77
2023-04-18T07:14:47.135Z,47.21
2023-04-18T07:15:47.116Z,53.62
2023-04-18T07:16:47.160Z,49.75
2023-04-18T07:17:47.252Z,51.89
2023-04-18T07:18:47.093Z,48.87
2023-04-18T07:19:47.115Z,49.98
2023-04-18T07:20:47.069Z,49.80
2023-04-18T07:21:47.075Z,49.87
2023-04-18T07:22:47.050Z,47.73
2023-04-18T07:23:47.037Z,52.60
2023-04-18T07:24:47.041Z,47.82
2023-04-18T07:25:47.033Z,50.36
2023-04-18T07:26:47.027Z,47.56
2023-04-18T07:27:47.016Z,50.81
2023-04-18T07:28:46.989Z,54.50
2023-04-18T07:29:47.983Z,47.96
2023-04-18T07:30:46.978Z,51.68
2023-04-18T07:31:46.986Z,52.32
2023-04-18T07:32:47.004Z,49.75
2023-04-18T07:33:46.938Z,52.02
2023-04-18T07:34:46.935Z,51.41
2023-04-18T07:35:46.925Z,49.50
2023-04-18T07:36:46.925Z,52.07
2023-04-18T07:37:46.905Z,52.77
2023-04-18T07:38:46.903Z,55.00
2023-04-18T07:39:46.881Z,51.47
2023-04-18T07:40:46.869Z,49.04
2023-04-18T07:41:46.886Z,52.27
2023-04-18T07:42:46.867Z,51.05
2023-04-18T07:43:46.846Z,48.80
2023-04-18T07:44:46.842Z,49.57
2023-04-18T07:45:46.830Z,53.14
2023-04-18T07:46:47.030Z,53.77
2023-04-18T07:47:46.835Z,49.49
2023-04-18T07:48:46.804Z,51.58
2023-04-18T07:49:46.786Z,50.62
2023-04-18T07:50:46.803Z,48.81
2023-04-18T07:51:46.777Z,48.99
2023-04-18T07:52:46.767Z,51.47
2023-04-18T07:53:46.755Z,48.79
2023-04-18T07:54:46.746Z,48.67
2023-04-18T07:55:46.787Z,49.61
2023-04-18T07:56:46.744Z,51.62
2023-04-18T07:57:47.547Z,48.13
2023-04-18T07:58:46.708Z,49.40
2023-04-18T07:59:46.710Z,53.47
2023-04-18T08:00:46.697Z,49.66
2023-04-18T08:01:46.698Z,53.69
2023-04-18T08:02:46.860Z,51.61
2023-04-18T08:03:46.798Z,54.25
2023-04-18T08:04:46.755Z,52.48
2023-04-18T08:05:46.630Z,49.27
2023-04-18T08:06:46.624Z,50.82
2023-04-18T08:07:46.657Z,50.54
2023-04-18T08:08:46.596Z,54.63
2023-04-18T08:09:46.585Z,52.83
2023-04-18T08:10:46.579Z,51.44
2023-04-18T08:11:46.576Z,53.26
2023-04-18T08:12:46.551Z,51.55
2023-04-18T08:13:46.557Z,49.61
2023-04-18T08:14:46.543Z,52.06
2023-04-18T08:15:46.557Z,56.62
2023-04-18T08:16:46.590Z,53.69
2023-04-18T08:17:46.562Z,53.67
2023-04-18T08:18:46.513Z,48.86
2023-04-18T08:19:46.485Z,54.01
2023-04-18T08:20:46.492Z,55.47
2023-04-18T08:21:46.488Z,50.46
2023-04-18T08:23:02.097Z,48.46
2023-04-18T08:23:48.599Z,53.06
2023-04-18T08:25:03.382Z,49.37
2023-04-18T08:25:48.431Z,52.11
2023-04-18T08:26:46.431Z,50.34
2023-04-18T08:27:46.414Z,50.93
2023-04-18T08:28:46.752Z,53.06
2023-04-18T08:29:46.525Z,53.36
2023-04-18T08:30:46.395Z,48.86
2023-04-18T08:31:46.436Z,50.17
2023-04-18T08:32:46.457Z,53.01
2023-04-18T08:33:46.365Z,48.83
2023-04-18T08:34:46.335Z,53.97
2023-04-18T08:35:46.418Z,52.00
2023-04-18T08:36:46.351Z,53.08
2023-04-18T08:37:46.323Z,60.80
2023-04-18T08:38:46.321Z,53.97
2023-04-18T08:39:46.308Z,50.23
2023-04-18T08:40:46.296Z,55.35
2023-04-18T08:41:46.297Z,52.03
2023-04-18T08:42:46.266Z,52.32
2023-04-18T08:43:46.247Z,62.08
2023-04-18T08:44:46.230Z,61.47
2023-04-18T08:45:46.266Z,51.00
2023-04-18T08:46:46.239Z,51.00
2023-04-18T08:47:46.241Z,55.75
2023-04-18T08:48:46.206Z,52.66
2023-04-18T08:49:46.168Z,49.60
2023-04-18T08:50:46.178Z,55.17
2023-04-18T08:51:46.154Z,66.03
2023-04-18T08:52:46.189Z,54.71
2023-04-18T08:53:46.165Z,52.46
2023-04-18T08:54:46.133Z,48.66
2023-04-18T08:55:46.162Z,55.31
2023-04-18T08:56:46.110Z,53.64
2023-04-18T08:57:46.123Z,50.83
2023-04-18T08:58:46.097Z,49.92
2023-04-18T08:59:47.628Z,50.32
2023-04-18T09:00:46.072Z,54.18
2023-04-18T09:01:46.123Z,49.34
2023-04-18T09:02:46.188Z,54.21
2023-04-18T09:03:46.064Z,52.33
2023-04-18T09:04:46.052Z,56.06
2023-04-18T09:05:46.009Z,50.62
2023-04-18T09:06:45.998Z,49.99
2023-04-18T09:07:47.004Z,53.80
2023-04-18T09:25:07.459Z,48.86
2023-04-18T09:26:07.351Z,48.16
2023-04-18T09:29:33.392Z,51.02
2023-04-18T09:30:33.431Z,52.01
2023-04-18T09:31:33.320Z,52.22
2023-04-18T09:37:51.275Z,50.58
2023-04-18T09:38:50.218Z,49.41
2023-04-18T09:56:53.726Z,50.73
2023-04-18T09:57:52.679Z,51.98
2023-04-18T09:58:52.652Z,53.94
2023-04-18T09:59:52.644Z,51.12
2023-04-18T10:00:52.628Z,54.52
2023-04-18T10:01:52.662Z,52.61
2023-04-18T10:02:52.716Z,52.04
2023-04-18T10:03:52.740Z,53.98
2023-04-18T10:04:52.726Z,53.03
2023-04-18T10:05:52.593Z,55.28
2023-04-18T10:06:52.557Z,50.33
2023-04-18T10:07:52.566Z,51.51
2023-04-18T10:08:52.545Z,52.80
2023-04-18T10:09:52.530Z,52.39
2023-04-18T10:10:52.519Z,48.52
2023-04-18T10:11:53.838Z,52.95
2023-04-18T10:12:53.633Z,50.61
2023-04-18T10:13:53.645Z,47.83
2023-04-18T10:14:53.960Z,53.12
2023-04-18T10:15:53.673Z,52.53
2023-04-18T10:16:53.633Z,51.43
2023-04-18T10:18:03.566Z,53.38
2023-04-18T10:18:55.568Z,52.70
2023-04-18T10:19:53.554Z,49.71
2023-04-18T10:20:53.552Z,52.10
2023-04-18T10:21:54.555Z,49.39
2023-04-18T10:22:53.560Z,49.91
2023-04-18T10:23:53.530Z,51.98
2023-04-18T10:24:53.891Z,48.45
2023-04-18T10:25:53.538Z,52.94
2023-04-18T10:26:53.540Z,48.43
2023-04-18T10:27:53.522Z,49.45
2023-04-18T10:28:53.951Z,50.57
2023-04-18T10:29:53.485Z,49.76
2023-04-18T10:30:53.497Z,52.79
2023-04-18T10:31:53.569Z,50.66
2023-04-18T10:32:53.498Z,51.06
2023-04-18T10:34:03.934Z,50.85
2023-04-18T10:34:55.458Z,49.48
2023-04-18T10:35:53.444Z,51.25
2023-04-18T10:36:53.425Z,49.81
2023-04-18T10:37:53.428Z,55.07
2023-04-18T10:38:53.415Z,51.63
2023-04-18T10:39:53.409Z,53.96
2023-04-18T10:40:53.394Z,50.95
2023-04-18T10:41:53.368Z,50.90
2023-04-18T10:42:53.398Z,54.64
2023-04-18T10:43:53.387Z,52.14
2023-04-18T10:44:53.341Z,48.46
2023-04-18T10:45:53.352Z,48.13
2023-04-18T10:46:53.416Z,51.49
2023-04-18T10:47:53.380Z,52.97
2023-04-18T10:48:53.330Z,49.76
2023-04-18T10:49:53.308Z,51.58
2023-04-18T10:50:53.288Z,51.54
2023-04-18T10:51:53.307Z,49.44
2023-04-18T10:52:53.288Z,50.31
2023-04-18T10:53:53.293Z,51.69
2023-04-18T10:54:53.277Z,51.69
2023-04-18T10:55:53.244Z,55.54
2023-04-18T10:56:53.258Z,52.95
2023-04-18T10:57:53.231Z,53.16
2023-04-18T10:58:53.256Z,50.10
2023-04-18T10:59:53.235Z,52.59
2023-04-18T11:00:53.224Z,53.58
2023-04-18T11:01:53.238Z,53.78
2023-04-18T11:02:53.337Z,55.75
2023-04-18T11:03:53.349Z,49.39
2023-04-18T11:04:53.187Z,52.20
2023-04-18T11:05:53.135Z,54.63
2023-04-18T11:06:53.139Z,55.07
2023-04-18T11:07:53.137Z,54.24
2023-04-18T11:08:53.150Z,47.90
2023-04-18T11:09:53.098Z,51.99
2023-04-18T11:10:53.119Z,50.09
2023-04-18T11:11:53.103Z,47.31
2023-04-18T11:12:53.120Z,48.52
2023-04-18T11:13:53.125Z,49.18
2023-04-18T11:14:53.073Z,52.78
2023-04-18T11:15:53.073Z,55.64
2023-04-18T11:16:53.221Z,52.34
2023-04-18T11:17:53.124Z,54.79
2023-04-18T11:18:53.041Z,48.47
2023-04-18T11:19:53.046Z,56.75
2023-04-18T11:20:53.014Z,51.51
2023-04-18T11:21:53.038Z,53.04
2023-04-18T11:22:53.128Z,48.56
2023-04-18T11:23:53.040Z,47.72
2023-04-18T11:24:52.980Z,55.14
2023-04-18T11:25:53.013Z,53.14
2023-04-18T11:26:52.925Z,50.43
2023-04-18T11:27:52.960Z,48.79
2023-04-18T11:28:52.950Z,52.56
2023-04-18T11:29:52.934Z,49.17
2023-04-18T11:30:52.920Z,52.46
2023-04-18T11:31:53.665Z,53.48
2023-04-18T11:32:52.909Z,50.70
2023-04-18T11:33:52.863Z,54.36
2023-04-18T11:34:52.832Z,54.47
2023-04-18T11:35:52.804Z,49.36
2023-04-18T11:36:52.793Z,51.39
2023-04-18T11:37:52.782Z,49.43
2023-04-18T11:38:52.794Z,48.51
2023-04-18T11:39:52.775Z,49.89
2023-04-18T11:40:52.752Z,55.58
2023-04-18T11:41:52.747Z,51.50
2023-04-18T11:42:53.733Z,47.46
2023-04-18T11:43:52.741Z,49.08
2023-04-18T11:44:52.725Z,49.51
2023-04-18T11:45:52.740Z,50.37
2023-04-18T11:46:52.726Z,53.88
2023-04-18T11:47:52.792Z,52.20
2023-04-18T11:48:53.684Z,53.13
2023-04-18T11:49:53.791Z,48.72
2023-04-18T11:50:52.651Z,52.84
2023-04-18T11:51:52.652Z,50.44
2023-04-18T11:52:52.633Z,51.68
2023-04-18T11:53:52.646Z,49.26
2023-04-18T11:54:52.626Z,49.04
2023-04-18T11:55:52.629Z,48.66
2023-04-18T11:56:52.602Z,49.99
2023-04-18T11:57:52.597Z,49.16
2023-04-18T11:58:52.590Z,51.61
2023-04-18T11:59:52.583Z,48.63
2023-04-18T12:00:52.556Z,53.28
2023-04-18T12:01:53.219Z,51.36
2023-04-18T12:02:53.653Z,54.08
2023-04-18T12:03:53.079Z,48.75
2023-04-18T12:04:52.792Z,54.93
2023-04-18T12:05:52.580Z,53.46
2023-04-18T12:06:52.594Z,53.09
2023-04-18T12:07:52.491Z,53.37
2023-04-18T12:08:53.984Z,51.81
2023-04-18T12:09:53.474Z,50.80
2023-04-18T12:10:52.490Z,50.93
2023-04-18T12:11:52.464Z,52.47
2023-04-18T12:12:52.455Z,50.46
2023-04-18T12:13:52.465Z,49.04
2023-04-18T12:14:52.442Z,54.17
2023-04-18T12:15:52.435Z,51.68
2023-04-18T12:16:53.392Z,52.35
2023-04-18T12:17:52.422Z,51.75
2023-04-18T12:18:52.390Z,51.05
2023-04-18T12:19:52.381Z,51.91
2023-04-18T12:20:52.453Z,56.81
2023-04-18T12:21:52.349Z,49.12
2023-04-18T12:22:52.351Z,52.80
2023-04-18T12:23:52.336Z,49.59
2023-04-18T12:24:52.318Z,52.13
2023-04-18T12:25:52.312Z,52.53
2023-04-18T12:26:52.299Z,49.04
2023-04-18T12:27:52.305Z,50.58
2023-04-18T12:28:52.286Z,50.94
2023-04-18T12:29:52.273Z,51.38
2023-04-18T12:30:52.256Z,50.07
2023-04-18T12:31:52.286Z,51.07
2023-04-18T12:32:52.266Z,52.66
2023-04-18T12:33:52.238Z,52.04
2023-04-18T12:34:52.222Z,49.05
2023-04-18T12:35:52.216Z,53.77
2023-04-18T12:36:52.193Z,49.45
2023-04-18T12:37:52.207Z,52.43
2023-04-18T12:38:52.186Z,52.15
2023-04-18T12:39:52.170Z,48.43
2023-04-18T12:40:52.158Z,50.05
2023-04-18T12:41:52.159Z,53.71
2023-04-18T12:42:52.154Z,49.77
2023-04-18T12:43:52.142Z,53.46
2023-04-18T12:44:52.111Z,52.36
2023-04-18T12:45:52.121Z,48.92
2023-04-18T12:46:52.119Z,51.71
2023-04-18T12:47:52.177Z,53.32
2023-04-18T12:48:52.100Z,52.81
2023-04-18T12:49:52.064Z,54.06
2023-04-18T12:50:52.055Z,52.26
2023-04-18T12:51:52.086Z,51.12
2023-04-18T12:52:52.055Z,54.21
2023-04-18T12:53:52.052Z,51.52
2023-04-18T12:54:52.019Z,48.55
2023-04-18T12:55:52.026Z,49.39
2023-04-18T12:56:52.000Z,53.66
2023-04-18T12:57:52.005Z,50.88
2023-04-18T12:58:52.001Z,51.39
2023-04-18T12:59:51.969Z,52.09
2023-04-18T13:00:52.000Z,52.30
2023-04-18T13:01:51.978Z,52.66
2023-04-18T13:02:52.188Z,48.07
2023-04-18T13:04:03.999Z,53.55
2023-04-18T13:04:53.981Z,50.78
2023-04-18T13:05:51.918Z,53.13
2023-04-18T13:06:51.899Z,51.33
2023-04-18T13:07:54.061Z,50.85
2023-04-18T13:08:52.892Z,49.13
2023-04-18T13:09:51.889Z,51.92
2023-04-18T13:10:51.857Z,50.33
2023-04-18T13:11:51.857Z,51.19
2023-04-18T13:12:51.839Z,51.71
2023-04-18T13:13:51.827Z,51.11
2023-04-18T13:14:51.812Z,51.22
2023-04-18T13:15:52.800Z,53.67
2023-04-18T13:16:51.864Z,52.79
2023-04-18T13:17:51.828Z,55.60
2023-04-18T13:18:51.781Z,54.23
2023-04-18T13:19:51.800Z,54.54
2023-04-18T13:20:51.756Z,49.19
2023-04-18T13:21:51.752Z,52.27
2023-04-18T13:22:51.741Z,52.13
2023-04-18T13:23:51.721Z,47.88
2023-04-18T13:24:51.728Z,48.25
2023-04-18T13:25:51.710Z,48.26
2023-04-18T13:26:51.691Z,50.86
2023-04-18T13:27:51.680Z,46.52
2023-04-18T13:28:51.673Z,49.28
2023-04-18T13:29:51.670Z,48.21
2023-04-18T13:30:51.654Z,46.21
2023-04-18T13:31:51.699Z,50.67
2023-04-18T13:32:51.635Z,49.46
2023-04-18T13:33:52.630Z,45.59